createdAt,value
2023-02-06T00:00:55.873Z,85.84
2023-02-06T00:03:23.686Z,85.44
2023-02-06T00:05:56.000Z,85.60
2023-02-06T00:08:23.802Z,85.77
2023-02-06T00:10:52.970Z,85.47
2023-02-06T00:13:21.525Z,85.31
2023-02-06T00:15:49.463Z,85.38
2023-02-06T00:18:17.278Z,85.51
2023-02-06T00:20:45.028Z,85.39
2023-02-06T00:23:12.834Z,85.49
2023-02-06T00:25:40.637Z,85.57
2023-02-06T00:28:09.886Z,86.16
2023-02-06T00:30:37.740Z,86.16
2023-02-06T00:33:05.540Z,86.20
2023-02-06T00:35:33.570Z,86.21
2023-02-06T00:38:02.445Z,86.64
2023-02-06T00:40:30.586Z,86.70
2023-02-06T00:42:58.377Z,86.05
2023-02-06T00:45:27.626Z,86.64
2023-02-06T00:47:55.399Z,86.50
2023-02-06T00:50:23.288Z,86.07
2023-02-06T00:52:51.073Z,86.34
2023-02-06T00:55:19.057Z,86.32
2023-02-06T00:57:46.861Z,86.14
2023-02-06T01:00:15.409Z,87.11
2023-02-06T01:02:44.604Z,86.89
2023-02-06T01:05:12.416Z,86.53
2023-02-06T01:07:41.244Z,86.76
2023-02-06T01:10:09.982Z,86.50
2023-02-06T01:12:38.545Z,86.49
2023-02-06T01:15:09.384Z,86.65
2023-02-06T01:17:39.070Z,86.35
2023-02-06T01:20:11.877Z,86.27
2023-02-06T01:22:39.926Z,86.70
2023-02-06T01:25:08.531Z,86.27
2023-02-06T01:27:37.110Z,86.20
2023-02-06T01:30:06.420Z,86.13
2023-02-06T01:32:37.845Z,86.11
2023-02-06T01:35:08.390Z,86.31
2023-02-06T01:37:37.298Z,86.81
2023-02-06T01:40:05.961Z,86.55
2023-02-06T01:42:35.587Z,86.72
2023-02-06T01:45:38.892Z,86.96
2023-02-06T01:48:11.145Z,86.89
2023-02-06T01:50:44.292Z,86.63
2023-02-06T01:53:13.965Z,86.84
2023-02-06T01:55:45.693Z,87.07
2023-02-06T01:58:18.226Z,86.78
2023-02-06T02:00:46.923Z,87.18
2023-02-06T02:03:15.101Z,86.69
2023-02-06T02:05:48.265Z,87.17
2023-02-06T02:08:21.314Z,87.11
2023-02-06T02:10:49.452Z,86.70
2023-02-06T02:13:18.784Z,86.77
2023-02-06T02:15:58.920Z,86.68
2023-02-06T02:18:48.078Z,86.62
2023-02-06T02:21:50.968Z,87.21
2023-02-06T02:24:28.368Z,87.01
2023-02-06T02:27:34.539Z,87.07
2023-02-06T02:30:25.678Z,86.81
2023-02-06T02:33:13.577Z,87.27
2023-02-06T02:35:54.785Z,86.52
2023-02-06T02:38:36.498Z,87.15
2023-02-06T02:41:11.003Z,87.00
2023-02-06T02:43:44.812Z,86.97
2023-02-06T02:46:19.047Z,86.79
2023-02-06T02:48:50.042Z,87.03
2023-02-06T02:51:20.254Z,86.56
2023-02-06T02:53:48.115Z,86.58
2023-02-06T02:56:19.991Z,86.63
2023-02-06T02:58:50.475Z,86.91
2023-02-06T03:01:22.552Z,86.65
2023-02-06T03:03:53.948Z,86.57
2023-02-06T03:06:43.066Z,86.64
2023-02-06T03:09:16.868Z,87.39
2023-02-06T03:11:56.356Z,87.17
2023-02-06T03:14:34.024Z,87.09
2023-02-06T03:17:10.493Z,87.29
2023-02-06T03:19:45.080Z,86.37
2023-02-06T03:22:16.313Z,87.32
2023-02-06T03:24:44.142Z,86.50
2023-02-06T03:27:16.919Z,87.21
2023-02-06T03:29:48.589Z,87.04
2023-02-06T03:32:21.195Z,87.04
2023-02-06T03:34:54.859Z,87.14
2023-02-06T03:37:25.420Z,87.78
2023-02-06T03:39:53.473Z,88.16
2023-02-06T03:42:23.619Z,87.61
2023-02-06T03:44:58.569Z,88.36
2023-02-06T03:47:27.525Z,88.07
2023-02-06T03:49:58.911Z,87.56
2023-02-06T03:52:35.145Z,88.08
2023-02-06T03:55:08.327Z,88.16
2023-02-06T03:57:37.528Z,87.62
2023-02-06T04:00:06.564Z,88.35
2023-02-06T04:02:41.317Z,88.29
2023-02-06T04:05:09.877Z,87.86
2023-02-06T04:07:39.125Z,88.17
2023-02-06T04:10:07.606Z,87.87
2023-02-06T04:12:35.408Z,87.50
2023-02-06T04:15:03.348Z,88.69
2023-02-06T04:17:46.357Z,87.87
2023-02-06T04:20:19.126Z,88.42
2023-02-06T04:22:48.357Z,89.09
2023-02-06T04:25:16.159Z,88.07
2023-02-06T04:27:44.058Z,88.35
2023-02-06T04:30:13.216Z,88.55
2023-02-06T04:32:40.999Z,88.80
2023-02-06T04:35:09.138Z,88.97
2023-02-06T04:37:37.635Z,88.98
2023-02-06T04:40:07.872Z,89.43
2023-02-06T04:42:35.724Z,88.60
2023-02-06T04:45:03.525Z,89.21
2023-02-06T04:47:31.375Z,89.53
2023-02-06T04:49:59.162Z,89.22
2023-02-06T04:52:27.013Z,88.97
2023-02-06T04:54:54.783Z,89.54
2023-02-06T04:57:24.339Z,89.71
2023-02-06T04:59:52.158Z,89.31
2023-02-06T05:02:19.957Z,89.06
2023-02-06T05:04:47.796Z,89.23
2023-02-06T05:07:15.575Z,89.04
2023-02-06T05:09:43.372Z,89.38
2023-02-06T05:12:13.900Z,89.57
2023-02-06T05:14:43.351Z,89.79
2023-02-06T05:17:11.118Z,89.46
2023-02-06T05:19:38.905Z,89.44
2023-02-06T05:22:06.693Z,89.96
2023-02-06T05:24:34.526Z,89.28
2023-02-06T05:27:02.362Z,89.63
2023-02-06T05:29:30.339Z,89.23
2023-02-06T05:31:59.648Z,89.77
2023-02-06T05:34:27.874Z,89.03
2023-02-06T05:36:55.724Z,89.60
2023-02-06T05:39:23.566Z,89.20
2023-02-06T05:41:51.458Z,89.68
2023-02-06T05:44:19.301Z,89.49
2023-02-06T05:46:48.360Z,88.95
2023-02-06T05:49:18.054Z,89.04
2023-02-06T05:51:45.998Z,89.92
2023-02-06T05:54:16.885Z,89.15
2023-02-06T05:56:44.783Z,89.83
2023-02-06T05:59:12.800Z,89.17
2023-02-06T06:01:40.674Z,89.48
2023-02-06T06:04:08.574Z,89.81
2023-02-06T06:06:37.750Z,89.25
2023-02-06T06:09:05.558Z,90.07
2023-02-06T06:11:34.285Z,89.83
2023-02-06T06:14:02.158Z,89.28
2023-02-06T06:16:29.910Z,89.95
2023-02-06T06:18:57.767Z,89.51
2023-02-06T06:21:25.674Z,89.96
2023-02-06T06:23:54.941Z,89.39
2023-02-06T06:26:22.726Z,89.44
2023-02-06T06:28:50.514Z,89.99
2023-02-06T06:31:18.743Z,89.72
2023-02-06T06:33:46.565Z,89.88
2023-02-06T06:36:14.872Z,89.43
2023-02-06T06:38:42.930Z,89.54
2023-02-06T06:41:12.189Z,89.88
2023-02-06T06:43:40.839Z,89.76
2023-02-06T06:46:08.745Z,90.33
2023-02-06T06:48:38.243Z,89.73
2023-02-06T06:51:07.020Z,89.81
2023-02-06T06:53:39.762Z,89.97
2023-02-06T06:56:09.588Z,90.17
2023-02-06T06:58:38.788Z,89.78
2023-02-06T07:01:08.505Z,90.41
2023-02-06T07:03:36.633Z,90.55
2023-02-06T07:06:04.799Z,90.07
2023-02-06T07:08:32.793Z,90.31
2023-02-06T07:11:00.547Z,90.88
2023-02-06T07:13:28.400Z,90.46
2023-02-06T07:15:57.543Z,90.61
2023-02-06T07:18:25.303Z,90.04
2023-02-06T07:20:53.210Z,90.72
2023-02-06T07:23:20.945Z,90.17
2023-02-06T07:25:48.937Z,90.89
2023-02-06T07:28:16.967Z,91.05
2023-02-06T07:30:44.858Z,90.15
2023-02-06T07:33:14.050Z,90.85
2023-02-06T07:35:43.075Z,90.92
2023-02-06T07:38:10.813Z,91.04
2023-02-06T07:40:44.957Z,90.61
2023-02-06T07:43:13.505Z,91.10
2023-02-06T07:45:41.390Z,90.96
2023-02-06T07:48:09.671Z,91.09
2023-02-06T07:50:39.271Z,91.04
2023-02-06T07:53:07.848Z,90.23
2023-02-06T07:55:38.298Z,90.39
2023-02-06T07:58:06.236Z,90.10
2023-02-06T08:00:34.130Z,90.66
2023-02-06T08:03:01.971Z,91.00
2023-02-06T08:05:29.863Z,91.16
2023-02-06T08:07:59.296Z,91.29
2023-02-06T08:10:27.328Z,90.87
2023-02-06T08:12:55.100Z,90.75
2023-02-06T08:15:22.875Z,90.51
2023-02-06T08:17:50.705Z,90.55
2023-02-06T08:20:18.741Z,90.92
2023-02-06T08:22:46.663Z,90.81
2023-02-06T08:25:15.834Z,91.03
2023-02-06T08:27:43.701Z,91.33
2023-02-06T08:30:13.998Z,91.08
2023-02-06T08:32:41.780Z,90.76
2023-02-06T08:35:09.693Z,90.97
2023-02-06T08:37:37.527Z,91.25
2023-02-06T08:40:06.090Z,90.99
2023-02-06T08:42:35.983Z,91.13
2023-02-06T08:45:03.784Z,90.46
2023-02-06T08:47:32.109Z,90.67
2023-02-06T08:50:02.898Z,90.23
2023-02-06T08:52:31.042Z,90.47
2023-02-06T08:54:59.296Z,90.76
2023-02-06T08:57:26.985Z,91.55
2023-02-06T08:59:56.118Z,91.05
2023-02-06T09:02:24.051Z,90.82
2023-02-06T09:04:52.046Z,90.65
2023-02-06T09:07:19.988Z,90.95
2023-02-06T09:09:47.760Z,90.81
2023-02-06T09:12:16.657Z,90.68
2023-02-06T09:14:44.462Z,90.57
2023-02-06T09:17:13.727Z,90.57
2023-02-06T09:19:41.741Z,90.39
2023-02-06T09:22:09.514Z,90.09
2023-02-06T09:24:38.688Z,90.00
2023-02-06T09:27:06.592Z,90.17
2023-02-06T09:29:34.595Z,90.42
2023-02-06T09:32:02.779Z,89.90
2023-02-06T09:34:31.938Z,90.34
2023-02-06T09:37:02.476Z,89.92
2023-02-06T09:39:30.880Z,90.12
2023-02-06T09:42:04.084Z,90.81
2023-02-06T09:44:35.168Z,90.21
2023-02-06T09:47:07.159Z,89.09
2023-02-06T09:49:44.152Z,90.13
2023-02-06T09:52:35.967Z,89.32
2023-02-06T09:55:12.201Z,89.26
2023-02-06T09:57:47.525Z,89.45
2023-02-06T10:00:30.281Z,89.96
2023-02-06T10:03:11.299Z,88.85
2023-02-06T10:05:50.509Z,88.67
2023-02-06T10:08:23.880Z,88.95
2023-02-06T10:10:56.440Z,89.51
2023-02-06T10:13:30.260Z,88.73
2023-02-06T10:16:05.506Z,88.74
2023-02-06T10:18:40.384Z,89.18
2023-02-06T10:21:19.637Z,89.08
2023-02-06T10:23:56.728Z,89.19
2023-02-06T10:26:24.554Z,89.53
2023-02-06T10:28:55.988Z,89.38
2023-02-06T10:31:47.613Z,89.16
2023-02-06T10:34:29.533Z,88.82
2023-02-06T10:37:11.255Z,88.79
2023-02-06T10:39:43.966Z,87.99
2023-02-06T10:42:21.707Z,87.38
2023-02-06T10:45:03.530Z,87.04
2023-02-06T10:47:43.553Z,86.18
2023-02-06T10:50:22.791Z,85.39
2023-02-06T10:52:52.806Z,84.85
2023-02-06T10:55:24.887Z,85.00
2023-02-06T10:58:05.119Z,84.05
2023-02-06T11:00:33.769Z,83.34
2023-02-06T11:03:08.179Z,83.30
2023-02-06T11:05:38.269Z,82.77
2023-02-06T11:08:14.904Z,82.53
2023-02-06T11:10:42.942Z,82.50
2023-02-06T11:13:14.939Z,82.66
2023-02-06T11:15:51.497Z,82.55
2023-02-06T11:18:25.262Z,81.74
2023-02-06T11:20:55.730Z,81.53
2023-02-06T11:23:26.808Z,80.50
2023-02-06T11:26:05.262Z,80.92
2023-02-06T11:28:35.157Z,80.46
2023-02-06T11:31:05.448Z,79.99
2023-02-06T11:33:52.072Z,71.22
2023-02-06T11:36:39.600Z,77.47
2023-02-06T11:39:24.102Z,76.60
2023-02-06T11:41:58.663Z,76.07
2023-02-06T11:44:27.652Z,75.93
2023-02-06T11:46:56.947Z,76.11
2023-02-06T11:49:28.988Z,76.02
2023-02-06T11:51:59.782Z,76.11
2023-02-06T11:54:31.359Z,76.11
2023-02-06T11:57:03.315Z,75.97
2023-02-06T11:59:34.421Z,74.52
2023-02-06T12:02:05.679Z,74.46
2023-02-06T12:04:38.142Z,74.09
2023-02-06T12:07:15.588Z,72.37
2023-02-06T12:09:44.943Z,74.15
2023-02-06T12:12:23.843Z,74.58
2023-02-06T12:14:56.406Z,73.89
2023-02-06T12:17:29.141Z,72.44
2023-02-06T12:20:02.934Z,71.36
2023-02-06T12:22:36.243Z,70.29
2023-02-06T12:25:06.832Z,68.98
2023-02-06T12:27:39.405Z,67.88
2023-02-06T12:30:24.784Z,67.58
2023-02-06T12:32:57.958Z,67.46
2023-02-06T12:35:35.699Z,64.13
2023-02-06T12:38:08.301Z,66.11
2023-02-06T12:40:46.053Z,64.65
2023-02-06T12:43:16.462Z,66.59
2023-02-06T12:45:52.197Z,66.69
2023-02-06T12:48:25.324Z,65.88
2023-02-06T12:51:02.716Z,64.98
2023-02-06T12:53:36.321Z,64.15
2023-02-06T12:56:12.124Z,63.17
2023-02-06T12:58:52.423Z,59.59
2023-02-06T13:01:33.809Z,60.47
2023-02-06T13:04:05.001Z,61.34
2023-02-06T13:06:43.616Z,61.85
2023-02-06T13:09:21.815Z,61.76
2023-02-06T13:11:51.268Z,62.80
2023-02-06T13:14:22.609Z,61.23
2023-02-06T13:16:53.891Z,60.59
2023-02-06T13:19:51.886Z,56.08
2023-02-06T13:22:36.392Z,55.27
2023-02-06T13:25:52.492Z,46.66
2023-02-06T13:28:59.681Z,51.70
2023-02-06T13:31:34.414Z,58.92
2023-02-06T13:34:06.433Z,60.03
2023-02-06T13:36:49.962Z,56.38
2023-02-06T13:39:27.777Z,58.59
2023-02-06T13:41:56.777Z,61.17
2023-02-06T13:44:31.763Z,61.97
2023-02-06T13:47:41.710Z,58.69
2023-02-06T13:50:30.783Z,59.69
2023-02-06T13:53:14.935Z,62.67
2023-02-06T13:55:59.263Z,64.62
2023-02-06T13:58:39.085Z,64.31
2023-02-06T14:01:14.574Z,64.07
2023-02-06T14:03:48.262Z,63.08
2023-02-06T14:06:31.311Z,60.57
2023-02-06T14:09:10.126Z,60.22
2023-02-06T14:12:05.463Z,60.44
2023-02-06T14:14:43.972Z,60.74
2023-02-06T14:17:28.061Z,59.44
2023-02-06T14:20:04.594Z,61.73
2023-02-06T14:22:39.258Z,62.81
2023-02-06T14:25:22.154Z,61.23
2023-02-06T14:28:03.357Z,62.71
2023-02-06T14:30:37.971Z,55.85
2023-02-06T14:33:21.881Z,63.59
2023-02-06T14:36:04.777Z,63.73
2023-02-06T14:39:08.133Z,63.32
2023-02-06T14:41:39.585Z,65.17
2023-02-06T14:44:14.524Z,65.42
2023-02-06T14:46:43.796Z,65.57
2023-02-06T14:49:18.711Z,65.30
2023-02-06T14:51:51.750Z,65.03
2023-02-06T14:54:38.399Z,63.47
2023-02-06T14:57:16.440Z,65.90
2023-02-06T14:59:52.334Z,65.24
2023-02-06T15:02:26.958Z,65.59
2023-02-06T15:04:56.132Z,59.91
2023-02-06T15:07:28.990Z,65.47
2023-02-06T15:10:01.040Z,65.61
2023-02-06T15:12:30.067Z,65.81
2023-02-06T15:15:02.843Z,65.32
2023-02-06T15:17:31.644Z,65.48
2023-02-06T15:20:24.122Z,60.27
2023-02-06T15:22:52.614Z,66.64
2023-02-06T15:25:34.735Z,66.00
2023-02-06T15:28:05.883Z,66.92
2023-02-06T15:30:37.627Z,67.10
2023-02-06T15:33:10.319Z,66.88
2023-02-06T15:35:42.369Z,67.04
2023-02-06T15:38:15.142Z,66.80
2023-02-06T15:40:46.139Z,66.85
2023-02-06T15:43:16.831Z,66.67
2023-02-06T15:45:46.028Z,66.78
2023-02-06T15:48:19.593Z,67.24
2023-02-06T15:50:59.451Z,66.82
2023-02-06T15:53:33.728Z,66.35
2023-02-06T15:56:03.947Z,66.75
2023-02-06T15:58:33.890Z,66.72
2023-02-06T16:01:05.735Z,67.20
2023-02-06T16:03:33.694Z,67.30
2023-02-06T16:06:02.901Z,67.56
2023-02-06T16:08:34.507Z,67.57
2023-02-06T16:11:26.742Z,67.40
2023-02-06T16:14:03.936Z,67.93
2023-02-06T16:16:31.871Z,67.76
2023-02-06T16:18:59.803Z,62.53
2023-02-06T16:21:30.221Z,67.89
2023-02-06T16:24:16.612Z,67.24
2023-02-06T16:26:47.914Z,67.88
2023-02-06T16:29:26.468Z,68.09
2023-02-06T16:32:00.443Z,68.23
2023-02-06T16:34:36.522Z,68.03
2023-02-06T16:37:10.805Z,68.59
2023-02-06T16:39:38.962Z,68.75
2023-02-06T16:42:06.999Z,68.67
2023-02-06T16:44:44.780Z,64.84
2023-02-06T16:47:15.367Z,69.39
2023-02-06T16:49:44.358Z,69.29
2023-02-06T16:52:18.903Z,69.17
2023-02-06T16:54:47.122Z,69.27
2023-02-06T16:57:22.574Z,69.04
2023-02-06T16:59:52.330Z,68.75
2023-02-06T17:02:20.204Z,68.83
2023-02-06T17:04:48.509Z,68.68
2023-02-06T17:07:19.211Z,69.19
2023-02-06T17:09:47.982Z,69.21
2023-02-06T17:12:17.859Z,69.76
2023-02-06T17:14:46.459Z,69.48
2023-02-06T17:17:17.271Z,69.42
2023-02-06T17:19:45.234Z,69.55
2023-02-06T17:22:14.183Z,69.52
2023-02-06T17:24:43.146Z,69.51
2023-02-06T17:27:16.528Z,69.64
2023-02-06T17:29:47.276Z,69.82
2023-02-06T17:32:21.687Z,69.55
2023-02-06T17:34:50.585Z,69.27
2023-02-06T17:37:21.549Z,69.39
2023-02-06T17:39:51.096Z,69.72
2023-02-06T17:42:19.155Z,69.84
2023-02-06T17:44:46.982Z,70.28
2023-02-06T17:47:16.170Z,70.12
2023-02-06T17:49:43.945Z,70.37
2023-02-06T17:52:11.764Z,70.90
2023-02-06T17:54:39.740Z,71.08
2023-02-06T17:57:07.779Z,71.42
2023-02-06T17:59:36.464Z,71.59
2023-02-06T18:02:04.887Z,71.49
2023-02-06T18:04:39.750Z,71.81
2023-02-06T18:07:07.402Z,68.67
2023-02-06T18:09:35.313Z,72.01
2023-02-06T18:12:03.123Z,72.18
2023-02-06T18:14:30.995Z,71.99
2023-02-06T18:16:58.771Z,71.67
2023-02-06T18:19:26.587Z,72.19
2023-02-06T18:21:55.837Z,72.15
2023-02-06T18:24:23.666Z,72.19
2023-02-06T18:26:51.542Z,72.07
2023-02-06T18:29:19.384Z,71.99
2023-02-06T18:31:47.257Z,71.87
2023-02-06T18:34:15.049Z,71.60
2023-02-06T18:36:42.856Z,71.78
2023-02-06T18:39:12.645Z,72.54
2023-02-06T18:42:00.151Z,73.00
2023-02-06T18:44:28.242Z,71.94
2023-02-06T18:46:56.097Z,72.32
2023-02-06T18:49:24.399Z,72.47
2023-02-06T18:51:52.218Z,72.82
2023-02-06T18:54:21.381Z,72.14
2023-02-06T18:56:49.872Z,72.63
2023-02-06T18:59:17.963Z,72.40
2023-02-06T19:01:45.835Z,72.38
2023-02-06T19:04:14.054Z,72.75
2023-02-06T19:06:43.128Z,70.41
2023-02-06T19:09:13.119Z,73.34
2023-02-06T19:11:43.497Z,72.83
2023-02-06T19:14:15.159Z,73.56
2023-02-06T19:16:44.595Z,73.57
2023-02-06T19:19:13.277Z,73.83
2023-02-06T19:21:41.426Z,73.85
2023-02-06T19:24:12.128Z,73.84
2023-02-06T19:26:40.151Z,74.01
2023-02-06T19:29:09.719Z,74.56
2023-02-06T19:31:40.500Z,73.64
2023-02-06T19:34:08.516Z,74.08
2023-02-06T19:36:36.653Z,74.48
2023-02-06T19:39:07.199Z,74.42
2023-02-06T19:41:35.493Z,75.35
2023-02-06T19:44:04.222Z,73.45
2023-02-06T19:46:33.370Z,74.74
2023-02-06T19:49:01.309Z,74.59
2023-02-06T19:51:31.435Z,74.67
2023-02-06T19:54:00.358Z,75.29
2023-02-06T19:56:34.395Z,75.31
2023-02-06T19:59:05.512Z,75.42
2023-02-06T20:01:35.501Z,75.43
2023-02-06T20:04:04.292Z,75.15
2023-02-06T20:06:35.014Z,75.39
2023-02-06T20:09:03.700Z,74.87
2023-02-06T20:11:33.405Z,74.97
2023-02-06T20:14:01.319Z,75.11
2023-02-06T20:16:31.620Z,75.60
2023-02-06T20:19:07.708Z,75.78
2023-02-06T20:21:39.237Z,75.81
2023-02-06T20:24:09.128Z,76.04
2023-02-06T20:26:38.550Z,76.49
2023-02-06T20:29:07.538Z,76.54
2023-02-06T20:31:35.700Z,76.28
2023-02-06T20:34:05.640Z,76.00
2023-02-06T20:36:33.494Z,76.14
2023-02-06T20:39:02.318Z,76.07
2023-02-06T20:41:32.204Z,76.09
2023-02-06T20:44:01.589Z,76.36
2023-02-06T20:46:32.679Z,76.11
2023-02-06T20:49:02.938Z,76.39
2023-02-06T20:51:32.976Z,76.61
2023-02-06T20:54:00.785Z,76.15
2023-02-06T20:56:29.356Z,76.73
2023-02-06T20:58:57.956Z,76.51
2023-02-06T21:01:28.198Z,77.05
2023-02-06T21:03:58.562Z,77.15
2023-02-06T21:06:26.863Z,77.02
2023-02-06T21:08:59.963Z,76.35
2023-02-06T21:11:29.665Z,77.07
2023-02-06T21:13:59.100Z,77.16
2023-02-06T21:16:27.857Z,76.75
2023-02-06T21:18:56.424Z,76.86
2023-02-06T21:21:25.532Z,76.16
2023-02-06T21:23:55.702Z,76.10
2023-02-06T21:26:25.634Z,76.38
2023-02-06T21:28:53.669Z,76.65
2023-02-06T21:31:24.473Z,76.44
2023-02-06T21:33:53.484Z,76.68
2023-02-06T21:36:22.849Z,77.03
2023-02-06T21:38:50.741Z,77.28
2023-02-06T21:41:19.626Z,77.44
2023-02-06T21:43:49.060Z,77.75
2023-02-06T21:46:16.893Z,77.97
2023-02-06T21:48:44.852Z,77.84
2023-02-06T21:51:14.961Z,77.16
2023-02-06T21:53:43.745Z,77.31
2023-02-06T21:56:17.437Z,77.18
2023-02-06T21:58:45.857Z,78.10
2023-02-06T22:01:18.326Z,77.00
2023-02-06T22:03:46.705Z,78.10
2023-02-06T22:06:15.303Z,77.53
2023-02-06T22:08:45.248Z,77.90
2023-02-06T22:11:15.692Z,77.41
2023-02-06T22:13:44.143Z,77.52
2023-02-06T22:16:12.640Z,77.06
2023-02-06T22:18:42.540Z,78.11
2023-02-06T22:21:14.015Z,78.21
2023-02-06T22:23:43.032Z,77.89
2023-02-06T22:26:12.845Z,78.25
2023-02-06T22:28:40.777Z,78.41
2023-02-06T22:31:11.519Z,78.58
2023-02-06T22:33:41.442Z,78.92
2023-02-06T22:36:11.456Z,78.94
2023-02-06T22:38:39.978Z,79.10
2023-02-06T22:41:11.721Z,78.93
2023-02-06T22:43:40.338Z,79.37
2023-02-06T22:46:09.041Z,79.31
2023-02-06T22:48:37.306Z,78.95
2023-02-06T22:51:08.149Z,79.29
2023-02-06T22:53:37.395Z,78.98
2023-02-06T22:56:25.147Z,79.36
2023-02-06T22:58:53.889Z,78.60
2023-02-06T23:01:24.080Z,79.08
2023-02-06T23:03:52.921Z,78.99
2023-02-06T23:06:22.822Z,79.03
2023-02-06T23:08:50.870Z,78.88
2023-02-06T23:11:18.912Z,78.83
2023-02-06T23:13:46.839Z,78.55
2023-02-06T23:16:14.683Z,78.96
2023-02-06T23:18:42.483Z,78.85
2023-02-06T23:21:12.922Z,78.79
2023-02-06T23:23:43.335Z,79.26
2023-02-06T23:26:13.685Z,78.58
2023-02-06T23:28:42.574Z,78.86
2023-02-06T23:31:11.257Z,79.13
2023-02-06T23:33:39.401Z,79.25
2023-02-06T23:36:09.223Z,79.44
2023-02-06T23:38:37.278Z,79.44
2023-02-06T23:41:08.976Z,80.10
2023-02-06T23:43:37.272Z,79.75
2023-02-06T23:46:06.194Z,80.02
2023-02-06T23:48:34.623Z,79.70
2023-02-06T23:51:02.727Z,79.25
2023-02-06T23:53:31.643Z,79.67
2023-02-06T23:55:59.472Z,80.00
2023-02-06T23:58:28.994Z,80.06
